createdAt,value
2019-02-26T00:01:02.834Z,18.43
2019-02-26T00:03:35.391Z,19.20
2019-02-26T00:06:07.253Z,19.70
2019-02-26T00:08:39.057Z,18.33
2019-02-26T00:11:10.904Z,19.20
2019-02-26T00:13:42.613Z,17.23
2019-02-26T00:16:15.865Z,19.23
2019-02-26T00:18:48.006Z,17.77
2019-02-26T00:21:20.477Z,18.23
2019-02-26T00:23:53.370Z,17.63
2019-02-26T00:26:25.148Z,17.53
2019-02-26T00:28:57.890Z,17.60
2019-02-26T00:31:30.514Z,20.00
2019-02-26T00:34:02.343Z,17.13
2019-02-26T00:36:35.943Z,18.23
2019-02-26T00:39:07.688Z,17.43
2019-02-26T00:41:40.331Z,17.17
2019-02-26T00:44:12.285Z,16.20
2019-02-26T00:46:44.053Z,16.67
2019-02-26T00:49:15.748Z,15.77
2019-02-26T00:51:48.268Z,18.57
2019-02-26T00:54:24.289Z,17.53
2019-02-26T00:56:57.060Z,17.07
2019-02-26T00:59:28.299Z,18.70
2019-02-26T01:02:00.056Z,18.00
2019-02-26T01:18:46.736Z,18.40
2019-02-26T01:21:22.117Z,18.10
2019-02-26T01:23:52.241Z,17.80
2019-02-26T01:26:27.956Z,18.40
2019-02-26T01:29:01.078Z,19.67
2019-02-26T01:31:34.012Z,18.43
2019-02-26T01:34:05.863Z,19.00
2019-02-26T01:36:38.227Z,18.03
2019-02-26T01:39:13.414Z,19.13
2019-02-26T01:41:46.059Z,18.40
2019-02-26T01:44:18.401Z,19.53
2019-02-26T01:46:50.192Z,18.43
2019-02-26T01:49:23.582Z,18.83
2019-02-26T01:51:55.555Z,17.83
2019-02-26T01:54:28.328Z,18.87
2019-02-26T01:57:00.827Z,17.87
2019-02-26T01:59:34.519Z,19.57
2019-02-26T02:02:06.124Z,19.97
2019-02-26T02:04:39.324Z,18.87
2019-02-26T02:07:11.508Z,18.40
2019-02-26T02:09:46.545Z,19.07
2019-02-26T02:12:16.930Z,20.50
2019-02-26T02:14:48.711Z,19.27
2019-02-26T02:17:20.472Z,19.70
2019-02-26T02:19:52.173Z,18.73
2019-02-26T02:22:23.940Z,19.63
2019-02-26T02:24:55.754Z,19.90
2019-02-26T02:27:30.262Z,20.07
2019-02-26T02:30:01.132Z,20.00
2019-02-26T02:32:34.489Z,19.93
2019-02-26T02:35:07.417Z,18.67
2019-02-26T02:37:40.215Z,20.37
2019-02-26T02:40:12.203Z,19.33
2019-02-26T02:42:46.479Z,20.13
2019-02-26T02:45:20.617Z,20.20
2019-02-26T02:47:54.861Z,21.43
2019-02-26T02:50:24.949Z,19.53
2019-02-26T02:52:59.050Z,19.43
2019-02-26T02:55:30.327Z,18.83
2019-02-26T02:58:02.202Z,20.40
2019-02-26T03:00:34.534Z,21.03
2019-02-26T03:03:06.382Z,21.17
2019-02-26T03:05:41.269Z,20.67
2019-02-26T03:08:13.985Z,21.70
2019-02-26T03:10:45.809Z,22.87
2019-02-26T03:13:20.157Z,22.13
2019-02-26T03:15:53.589Z,21.43
2019-02-26T03:18:25.413Z,20.30
2019-02-26T03:20:59.343Z,22.17
2019-02-26T03:23:31.307Z,22.07
2019-02-26T03:26:04.332Z,21.33
2019-02-26T03:28:37.526Z,20.90
2019-02-26T03:31:09.649Z,20.73
2019-02-26T03:33:41.442Z,21.67
2019-02-26T03:36:14.096Z,21.30
2019-02-26T03:38:49.045Z,23.07
2019-02-26T03:41:22.825Z,22.83
2019-02-26T03:43:54.365Z,21.60
2019-02-26T03:46:27.632Z,21.90
2019-02-26T03:49:02.492Z,22.07
2019-02-26T03:51:33.007Z,22.23
2019-02-26T03:54:04.858Z,21.10
2019-02-26T03:56:37.325Z,22.20
2019-02-26T03:59:11.789Z,21.03
2019-02-26T04:01:42.756Z,22.20
2019-02-26T04:04:14.522Z,22.33
2019-02-26T04:06:47.176Z,23.63
2019-02-26T04:09:19.623Z,23.27
2019-02-26T04:11:53.434Z,24.00
2019-02-26T04:14:28.283Z,22.93
2019-02-26T04:17:01.493Z,21.87
2019-02-26T04:19:37.160Z,22.03
2019-02-26T04:22:31.011Z,23.80
2019-02-26T04:25:12.321Z,24.23
2019-02-26T04:28:10.554Z,22.00
2019-02-26T04:31:03.866Z,21.90
2019-02-26T04:34:05.357Z,20.73
2019-02-26T04:37:27.482Z,22.13
2019-02-26T04:40:23.505Z,22.97
2019-02-26T04:43:52.505Z,22.93
2019-02-26T04:46:46.172Z,22.80
2019-02-26T04:49:17.839Z,23.67
2019-02-26T04:51:50.540Z,21.57
2019-02-26T04:54:26.328Z,22.87
2019-02-26T04:56:55.948Z,21.63
2019-02-26T04:59:29.781Z,24.63
2019-02-26T05:02:01.231Z,23.23
2019-02-26T05:04:34.084Z,24.03
2019-02-26T05:07:08.027Z,22.97
2019-02-26T05:09:40.178Z,23.70
2019-02-26T05:12:11.818Z,24.07
2019-02-26T05:14:43.545Z,23.97
2019-02-26T05:17:15.569Z,23.17
2019-02-26T05:19:48.760Z,24.50
2019-02-26T05:22:22.652Z,22.10
2019-02-26T05:24:54.426Z,24.77
2019-02-26T05:27:26.131Z,24.57
2019-02-26T05:29:57.853Z,24.57
2019-02-26T05:32:30.973Z,23.50
2019-02-26T05:35:03.442Z,23.47
2019-02-26T05:37:37.506Z,22.13
2019-02-26T05:40:10.406Z,23.13
2019-02-26T05:42:42.249Z,26.30
2019-02-26T05:45:13.895Z,23.27
2019-02-26T05:47:48.003Z,23.83
2019-02-26T05:50:19.070Z,22.63
2019-02-26T05:52:57.525Z,24.23
2019-02-26T05:55:25.646Z,24.17
2019-02-26T05:57:57.808Z,23.40
2019-02-26T06:00:33.196Z,24.90
2019-02-26T06:03:03.698Z,25.70
2019-02-26T06:05:41.102Z,24.63
2019-02-26T06:08:10.036Z,26.40
2019-02-26T06:10:41.673Z,28.00
2019-02-26T06:13:15.521Z,26.87
2019-02-26T06:15:46.846Z,25.83
2019-02-26T06:18:18.505Z,27.67
2019-02-26T06:20:51.579Z,25.77
2019-02-26T06:23:25.511Z,28.17
2019-02-26T06:25:58.946Z,26.30
2019-02-26T06:28:35.404Z,28.13
2019-02-26T06:31:04.652Z,27.87
2019-02-26T06:33:38.436Z,28.77
2019-02-26T06:36:10.062Z,31.67
2019-02-26T06:39:26.865Z,29.40
2019-02-26T06:42:23.680Z,29.60
2019-02-26T06:44:55.352Z,30.77
2019-02-26T06:47:29.304Z,29.93
2019-02-26T06:50:02.839Z,29.27
2019-02-26T06:52:37.148Z,28.50
2019-02-26T06:55:08.549Z,29.40
2019-02-26T06:57:41.406Z,28.53
2019-02-26T07:00:13.857Z,28.53
2019-02-26T07:02:46.326Z,28.67
2019-02-26T07:05:18.130Z,29.70
2019-02-26T07:07:49.941Z,29.50
2019-02-26T07:10:25.601Z,28.30
2019-02-26T07:12:55.121Z,30.50
2019-02-26T07:15:29.379Z,31.13
2019-02-26T07:18:04.402Z,29.37
2019-02-26T07:20:39.483Z,30.67
2019-02-26T07:23:10.502Z,30.90
2019-02-26T07:25:44.118Z,30.73
2019-02-26T07:28:17.563Z,30.17
2019-02-26T07:30:49.318Z,30.27
2019-02-26T07:33:21.069Z,30.53
2019-02-26T07:35:54.540Z,31.70
2019-02-26T07:38:27.654Z,31.03
2019-02-26T07:41:01.357Z,29.87
2019-02-26T07:43:36.633Z,31.13
2019-02-26T07:46:06.811Z,33.30
2019-02-26T07:48:38.446Z,33.40
2019-02-26T07:51:10.213Z,32.73
2019-02-26T07:53:44.400Z,34.73
2019-02-26T07:56:15.538Z,35.57
2019-02-26T07:58:47.174Z,34.47
2019-02-26T08:01:18.792Z,37.07
2019-02-26T08:03:51.428Z,37.77
2019-02-26T08:06:23.958Z,35.23
2019-02-26T08:08:55.624Z,36.73
2019-02-26T08:11:27.256Z,35.83
2019-02-26T08:13:59.708Z,36.50
2019-02-26T08:16:32.409Z,37.80
2019-02-26T08:19:04.045Z,37.37
2019-02-26T08:21:35.700Z,36.07
2019-02-26T08:24:07.341Z,37.97
2019-02-26T08:26:40.447Z,39.27
2019-02-26T08:29:12.561Z,39.30
2019-02-26T08:31:46.672Z,38.53
2019-02-26T08:34:17.786Z,37.27
2019-02-26T08:36:49.497Z,37.80
2019-02-26T08:39:21.124Z,39.47
2019-02-26T08:42:00.861Z,37.63
2019-02-26T08:44:32.493Z,38.07
2019-02-26T08:47:08.656Z,37.57
2019-02-26T08:49:40.101Z,37.83
2019-02-26T08:52:11.393Z,38.60
2019-02-26T08:54:43.025Z,37.93
2019-02-26T08:57:14.650Z,39.67
2019-02-26T08:59:47.304Z,39.50
2019-02-26T09:02:19.845Z,40.40
2019-02-26T09:04:51.489Z,40.77
2019-02-26T09:07:23.735Z,40.87
2019-02-26T09:09:57.598Z,40.13
2019-02-26T09:12:29.693Z,41.57
2019-02-26T09:15:01.373Z,41.87
2019-02-26T09:17:34.697Z,43.13
2019-02-26T09:20:12.191Z,43.30
2019-02-26T09:22:45.733Z,41.47
2019-02-26T09:25:16.575Z,44.40
2019-02-26T09:27:48.216Z,43.20
2019-02-26T09:30:19.852Z,43.68
2019-02-26T09:32:52.487Z,43.52
2019-02-26T09:35:28.384Z,43.55
2019-02-26T09:38:00.798Z,44.88
2019-02-26T09:40:34.243Z,44.45
2019-02-26T09:43:06.124Z,45.43
2019-02-26T09:45:37.998Z,44.40
2019-02-26T09:48:10.425Z,45.80
2019-02-26T09:50:44.301Z,45.93
2019-02-26T09:53:16.725Z,43.47
2019-02-26T09:55:48.362Z,42.63
2019-02-26T09:58:21.080Z,45.83
2019-02-26T10:00:54.038Z,45.25
2019-02-26T10:03:27.285Z,47.67
2019-02-26T10:05:59.373Z,43.23
2019-02-26T10:08:31.004Z,45.23
2019-02-26T10:11:04.827Z,47.67
2019-02-26T10:13:36.165Z,45.10
2019-02-26T10:16:08.907Z,45.10
2019-02-26T10:18:40.746Z,45.40
2019-02-26T10:21:14.870Z,45.12
2019-02-26T10:23:49.279Z,45.70
2019-02-26T10:26:19.568Z,46.73
2019-02-26T10:28:57.501Z,49.60
2019-02-26T10:31:27.373Z,48.35
2019-02-26T10:33:58.381Z,45.63
2019-02-26T10:36:32.477Z,46.40
2019-02-26T10:39:07.357Z,45.73
2019-02-26T10:41:39.854Z,45.20
2019-02-26T10:44:14.636Z,44.90
2019-02-26T10:46:46.142Z,46.43
2019-02-26T10:49:17.768Z,44.60
2019-02-26T10:51:49.413Z,43.97
2019-02-26T10:54:21.038Z,46.47
2019-02-26T10:56:52.669Z,45.57
2019-02-26T10:59:24.306Z,44.70
2019-02-26T11:01:58.593Z,44.93
2019-02-26T11:04:34.776Z,43.87
2019-02-26T11:07:04.821Z,45.57
2019-02-26T11:09:36.663Z,42.47
2019-02-26T11:12:08.696Z,44.37
2019-02-26T11:14:41.949Z,44.77
2019-02-26T11:17:15.833Z,42.07
2019-02-26T11:19:47.983Z,43.43
2019-02-26T11:22:21.296Z,44.03
2019-02-26T11:24:55.607Z,40.43
2019-02-26T11:27:26.790Z,44.70
2019-02-26T11:29:59.537Z,41.77
2019-02-26T11:32:32.974Z,43.60
2019-02-26T11:35:07.122Z,43.43
2019-02-26T11:37:38.865Z,44.23
2019-02-26T11:40:12.281Z,43.83
2019-02-26T11:42:44.513Z,45.60
2019-02-26T11:45:19.282Z,42.80
2019-02-26T11:47:51.101Z,42.77
2019-02-26T11:50:26.900Z,43.33
2019-02-26T11:52:56.540Z,43.23
2019-02-26T11:55:31.339Z,43.60
2019-02-26T11:58:05.618Z,44.57
2019-02-26T12:01:00.862Z,44.10
2019-02-26T12:03:34.086Z,40.93
2019-02-26T12:06:07.046Z,43.83
2019-02-26T12:08:40.579Z,40.40
2019-02-26T12:11:17.457Z,42.77
2019-02-26T12:13:47.334Z,40.90
2019-02-26T12:16:19.658Z,42.93
2019-02-26T12:18:51.314Z,40.93
2019-02-26T12:21:25.083Z,41.73
2019-02-26T12:23:57.985Z,39.30
2019-02-26T12:26:30.246Z,39.03
2019-02-26T12:29:02.543Z,40.07
2019-02-26T12:31:36.932Z,40.67
2019-02-26T12:34:11.631Z,42.53
2019-02-26T12:36:42.862Z,40.80
2019-02-26T12:39:16.180Z,41.50
2019-02-26T12:41:48.361Z,40.17
2019-02-26T12:44:19.994Z,40.90
2019-02-26T12:46:53.625Z,39.63
2019-02-26T12:49:25.164Z,39.80
2019-02-26T12:51:59.309Z,39.67
2019-02-26T12:54:33.302Z,40.60
2019-02-26T12:57:04.328Z,38.40
2019-02-26T12:59:36.115Z,38.73
2019-02-26T13:02:12.207Z,36.63
2019-02-26T13:04:44.217Z,37.60
2019-02-26T13:07:14.822Z,39.63
2019-02-26T13:09:50.534Z,39.30
2019-02-26T13:12:23.302Z,38.37
2019-02-26T13:14:55.243Z,39.13
2019-02-26T13:17:29.476Z,39.57
2019-02-26T13:20:01.679Z,37.73
2019-02-26T13:22:34.237Z,39.13
2019-02-26T13:25:09.648Z,38.47
2019-02-26T13:27:43.179Z,39.30
2019-02-26T13:30:16.529Z,34.73
2019-02-26T13:32:56.126Z,36.60
2019-02-26T13:35:22.612Z,35.73
2019-02-26T13:37:54.437Z,37.50
2019-02-26T13:40:26.096Z,37.83
2019-02-26T13:45:31.478Z,36.57
2019-02-26T13:48:03.314Z,35.27
2019-02-26T13:50:35.062Z,34.97
2019-02-26T13:53:06.681Z,34.83
2019-02-26T13:55:38.321Z,34.37
2019-02-26T13:58:11.878Z,35.57
2019-02-26T14:00:43.501Z,36.73
2019-02-26T14:03:15.129Z,33.80
2019-02-26T14:05:46.773Z,36.33
2019-02-26T14:08:18.409Z,36.70
2019-02-26T14:10:50.066Z,36.13
2019-02-26T14:13:21.690Z,36.03
2019-02-26T14:15:53.320Z,34.97
2019-02-26T14:18:24.950Z,35.23
2019-02-26T14:20:56.588Z,35.77
2019-02-26T14:23:28.241Z,34.37
2019-02-26T14:25:59.882Z,33.87
2019-02-26T14:28:31.499Z,35.40
2019-02-26T14:31:03.122Z,34.90
2019-02-26T14:33:34.770Z,34.03
2019-02-26T14:36:06.412Z,34.03
2019-02-26T14:38:38.046Z,33.47
2019-02-26T14:41:09.682Z,33.67
2019-02-26T14:43:41.313Z,34.70
2019-02-26T14:46:12.942Z,34.70
2019-02-26T14:48:44.708Z,32.27
2019-02-26T14:51:17.729Z,34.23
2019-02-26T14:53:49.512Z,33.43
2019-02-26T14:56:21.197Z,33.40
2019-02-26T14:58:52.826Z,32.03
2019-02-26T15:01:24.468Z,34.70
2019-02-26T15:03:56.979Z,34.70
2019-02-26T15:06:28.610Z,31.00
2019-02-26T15:09:00.250Z,30.27
2019-02-26T15:11:31.874Z,32.53
2019-02-26T15:14:03.976Z,30.70
2019-02-26T15:16:35.613Z,31.73
2019-02-26T15:19:07.255Z,30.67
2019-02-26T15:21:38.889Z,30.77
2019-02-26T15:24:10.546Z,30.60
2019-02-26T15:26:42.191Z,31.63
2019-02-26T15:29:13.829Z,32.73
2019-02-26T15:31:45.478Z,31.47
2019-02-26T15:34:17.119Z,32.60
2019-02-26T15:36:48.846Z,31.97
2019-02-26T15:39:20.484Z,33.53
2019-02-26T15:41:52.170Z,33.13
2019-02-26T15:44:23.802Z,33.33
2019-02-26T15:46:55.552Z,36.57
2019-02-26T15:49:27.199Z,33.80
2019-02-26T15:51:58.925Z,33.63
2019-02-26T15:54:30.624Z,33.37
2019-02-26T15:57:02.282Z,32.80
2019-02-26T15:59:35.645Z,36.17
2019-02-26T16:02:07.965Z,36.43
2019-02-26T16:04:39.600Z,37.57
2019-02-26T16:07:11.241Z,35.43
2019-02-26T16:09:42.904Z,37.70
2019-02-26T16:12:14.676Z,37.73
2019-02-26T16:14:46.405Z,36.50
2019-02-26T16:17:18.041Z,39.87
2019-02-26T16:19:49.656Z,36.30
2019-02-26T16:22:21.297Z,40.80
2019-02-26T16:24:53.074Z,37.00
2019-02-26T16:27:24.734Z,39.87
2019-02-26T16:29:56.402Z,38.63
2019-02-26T16:32:28.063Z,38.30
2019-02-26T16:34:59.677Z,39.70
2019-02-26T16:37:31.422Z,39.07
2019-02-26T16:40:03.322Z,40.50
2019-02-26T16:42:34.957Z,59.37
2019-02-26T16:45:10.029Z,95.43
2019-02-26T16:47:41.978Z,63.77
2019-02-26T16:50:14.977Z,43.63
2019-02-26T16:52:46.906Z,40.90
2019-02-26T16:55:19.261Z,39.50
2019-02-26T16:57:51.353Z,39.17
2019-02-26T17:00:23.524Z,40.30
2019-02-26T17:02:59.778Z,40.37
2019-02-26T17:05:29.043Z,40.50
2019-02-26T17:08:01.149Z,41.50
2019-02-26T17:10:32.917Z,43.03
2019-02-26T17:13:04.975Z,46.47
2019-02-26T17:15:36.597Z,43.37
2019-02-26T17:18:09.813Z,43.03
2019-02-26T17:20:42.075Z,42.60
2019-02-26T17:23:14.437Z,41.67
2019-02-26T17:25:46.294Z,40.47
2019-02-26T17:28:17.933Z,40.50
2019-02-26T17:30:49.624Z,40.30
2019-02-26T17:33:21.405Z,41.33
2019-02-26T17:35:53.122Z,40.97
2019-02-26T17:38:26.065Z,40.07
2019-02-26T17:40:57.924Z,42.67
2019-02-26T17:43:29.771Z,42.67
2019-02-26T17:46:01.406Z,48.00
2019-02-26T17:48:43.051Z,54.60
2019-02-26T17:51:06.680Z,53.73
2019-02-26T17:53:39.272Z,53.93
2019-02-26T17:56:11.067Z,50.57
2019-02-26T17:58:43.997Z,49.33
2019-02-26T18:01:16.250Z,50.13
2019-02-26T18:03:47.907Z,47.73
2019-02-26T18:06:19.539Z,49.10
2019-02-26T18:08:51.193Z,47.00
2019-02-26T18:11:23.598Z,45.80
2019-02-26T18:13:57.823Z,50.13
2019-02-26T18:16:31.794Z,49.97
2019-02-26T18:19:03.221Z,50.93
2019-02-26T18:21:34.846Z,51.13
2019-02-26T18:24:09.938Z,46.37
2019-02-26T18:26:41.666Z,45.87
2019-02-26T18:29:13.304Z,46.33
2019-02-26T18:31:45.017Z,48.63
2019-02-26T18:34:16.897Z,46.27
2019-02-26T18:36:48.548Z,46.17
2019-02-26T18:39:22.324Z,46.30
2019-02-26T18:41:53.738Z,45.40
2019-02-26T18:44:25.365Z,45.53
2019-02-26T18:46:56.986Z,46.80
2019-02-26T18:49:28.634Z,46.83
2019-02-26T18:52:00.273Z,47.47
2019-02-26T18:54:31.938Z,46.33
2019-02-26T18:57:03.585Z,48.67
2019-02-26T18:59:35.225Z,49.23
2019-02-26T19:02:06.852Z,54.53
2019-02-26T19:04:38.499Z,57.77
2019-02-26T19:07:10.139Z,49.43
2019-02-26T19:09:42.714Z,54.23
2019-02-26T19:12:15.331Z,52.80
2019-02-26T19:14:46.966Z,53.33
2019-02-26T19:17:18.611Z,51.83
2019-02-26T19:19:50.597Z,54.03
2019-02-26T19:22:26.397Z,56.13
2019-02-26T19:24:55.930Z,53.97
2019-02-26T19:27:30.534Z,52.83
2019-02-26T19:30:04.579Z,53.73
2019-02-26T19:32:36.032Z,54.37
2019-02-26T19:35:12.232Z,55.63
2019-02-26T19:37:41.460Z,55.60
2019-02-26T19:40:15.149Z,55.63
2019-02-26T19:42:46.794Z,60.90
2019-02-26T19:45:18.545Z,59.50
2019-02-26T19:47:50.374Z,59.10
2019-02-26T19:50:22.034Z,56.87
2019-02-26T19:52:56.871Z,58.17
2019-02-26T19:55:29.779Z,58.97
2019-02-26T19:58:03.417Z,61.03
2019-02-26T20:00:35.035Z,64.17
2019-02-26T20:03:06.687Z,62.73
2019-02-26T20:05:38.381Z,65.30
2019-02-26T20:08:10.300Z,68.40
2019-02-26T20:10:41.970Z,64.87
2019-02-26T20:13:13.705Z,71.00
2019-02-26T20:15:45.498Z,66.10
2019-02-26T20:18:20.803Z,63.93
2019-02-26T20:20:50.796Z,65.37
2019-02-26T20:23:22.711Z,68.43
2019-02-26T20:25:54.500Z,71.97
2019-02-26T20:28:26.268Z,66.17
2019-02-26T20:30:57.933Z,70.87
2019-02-26T20:33:29.578Z,69.83
2019-02-26T20:36:01.252Z,70.03
2019-02-26T20:38:35.204Z,72.50
2019-02-26T20:41:06.452Z,70.67
2019-02-26T20:43:41.098Z,72.67
2019-02-26T20:46:12.824Z,73.20
2019-02-26T20:48:44.487Z,76.33
2019-02-26T20:51:18.696Z,69.60
2019-02-26T20:53:49.807Z,70.60
2019-02-26T20:56:21.455Z,72.13
2019-02-26T20:58:53.100Z,69.67
2019-02-26T21:01:25.127Z,72.70
2019-02-26T21:03:56.814Z,72.90
2019-02-26T21:06:28.484Z,72.60
2019-02-26T21:09:00.128Z,72.27
2019-02-26T21:11:31.770Z,77.47
2019-02-26T21:14:07.582Z,75.97
2019-02-26T21:16:37.015Z,74.83
2019-02-26T21:19:08.662Z,74.67
2019-02-26T21:21:40.801Z,74.53
2019-02-26T21:24:12.410Z,74.57
2019-02-26T21:26:44.096Z,82.90
2019-02-26T21:29:15.813Z,75.43
2019-02-26T21:31:49.746Z,74.10
2019-02-26T21:34:20.981Z,74.33
2019-02-26T21:36:52.642Z,87.23
2019-02-26T21:39:24.360Z,82.67
2019-02-26T21:41:56.492Z,81.83
2019-02-26T21:44:28.230Z,80.03
2019-02-26T21:46:59.863Z,77.57
2019-02-26T21:49:31.505Z,82.87
2019-02-26T21:52:06.666Z,79.10
2019-02-26T21:54:36.812Z,81.40
2019-02-26T21:57:08.546Z,81.53
2019-02-26T21:59:40.172Z,86.53
2019-02-26T22:02:11.825Z,87.00
2019-02-26T22:04:43.452Z,87.50
2019-02-26T22:07:18.790Z,83.13
2019-02-26T22:09:48.673Z,82.10
2019-02-26T22:12:21.838Z,82.10
2019-02-26T22:14:53.858Z,82.50
2019-02-26T22:17:25.895Z,80.73
2019-02-26T22:19:57.577Z,79.33
2019-02-26T22:22:29.251Z,80.07
2019-02-26T22:25:09.214Z,80.03
2019-02-26T22:27:36.162Z,80.40
2019-02-26T22:30:10.776Z,80.10
2019-02-26T22:32:42.563Z,81.07
2019-02-26T22:35:14.193Z,80.07
2019-02-26T22:37:45.853Z,74.20
2019-02-26T22:40:17.508Z,75.93
2019-02-26T22:42:51.269Z,75.37
2019-02-26T22:45:22.934Z,80.10
2019-02-26T22:47:54.607Z,80.70
2019-02-26T22:50:27.274Z,86.97
2019-02-26T22:53:03.808Z,87.73
2019-02-26T22:55:33.011Z,89.90
2019-02-26T22:58:04.651Z,83.53
2019-02-26T23:01:05.229Z,84.03
2019-02-26T23:03:37.097Z,80.43
2019-02-26T23:06:09.409Z,83.20
2019-02-26T23:08:44.371Z,83.27
2019-02-26T23:11:15.233Z,82.87
2019-02-26T23:13:47.184Z,81.70
2019-02-26T23:16:19.152Z,84.97
2019-02-26T23:18:51.505Z,83.70
2019-02-26T23:21:23.218Z,84.47
2019-02-26T23:23:55.400Z,84.63
2019-02-26T23:26:27.197Z,81.73
2019-02-26T23:28:58.838Z,83.03
2019-02-26T23:31:32.735Z,85.53
2019-02-26T23:34:04.303Z,87.30
2019-02-26T23:36:36.021Z,88.37
2019-02-26T23:39:08.990Z,86.07
2019-02-26T23:41:40.614Z,87.87
2019-02-26T23:44:13.029Z,85.17
2019-02-26T23:46:44.682Z,83.80
2019-02-26T23:49:16.409Z,83.80
2019-02-26T23:51:48.022Z,82.17
2019-02-26T23:54:19.664Z,79.60
2019-02-26T23:56:52.083Z,83.70
2019-02-26T23:59:24.346Z,84.10
